Time;durP1;ratioP1;P1;durP2;ratioP2;P2;SDS_P1;SDS_P2;PMS_P1;PMS_P2;Temp;Humidity;BMP_temperature;BMP_pressure;BME280_temperature;BME280_humidity;BME280_pressure;Samples;Min_cycle;Max_cycle;Signal;HPM_P1;HPM_P2
2022/07/31 00:01:57;;;;;;;4.15;2.17;;;19.70;99.90;;;;;;5031631;28;20182;-78
2022/07/31 00:04:23;;;;;;;2.80;2.45;;;19.70;99.90;;;;;;5030848;28;20170;-77
2022/07/31 00:06:49;;;;;;;4.77;2.40;;;19.80;99.90;;;;;;5030268;28;20174;-75
2022/07/31 00:09:15;;;;;;;6.97;2.30;;;19.70;99.90;;;;;;5031663;28;20206;-76
2022/07/31 00:11:42;;;;;;;4.95;2.22;;;19.90;99.20;;;;;;5031620;28;20252;-77
2022/07/31 00:14:08;;;;;;;3.73;2.13;;;19.90;99.50;;;;;;5032091;28;20173;-76
2022/07/31 00:16:34;;;;;;;4.70;2.47;;;19.80;98.80;;;;;;5035078;28;20611;-76
2022/07/31 00:18:59;;;;;;;2.50;2.30;;;19.90;98.90;;;;;;5034982;28;20202;-76
2022/07/31 00:21:25;;;;;;;4.63;2.20;;;19.80;98.90;;;;;;5034610;28;20202;-76
2022/07/31 00:23:50;;;;;;;6.83;2.30;;;19.80;99.90;;;;;;5034837;28;20251;-76
2022/07/31 00:26:16;;;;;;;3.77;2.00;;;19.80;99.30;;;;;;5035013;28;20180;-76
2022/07/31 00:28:41;;;;;;;2.70;2.43;;;19.90;99.00;;;;;;5034688;28;20190;-78
2022/07/31 00:31:07;;;;;;;3.63;2.10;;;19.60;99.70;;;;;;5034194;28;20194;-78
2022/07/31 00:33:32;;;;;;;3.20;2.90;;;19.60;99.60;;;;;;5033663;28;20534;-78
2022/07/31 00:35:58;;;;;;;8.50;2.93;;;19.70;98.70;;;;;;5034415;28;20178;-78
2022/07/31 00:38:24;;;;;;;4.50;2.43;;;19.70;99.20;;;;;;5033999;28;20178;-78
2022/07/31 00:40:50;;;;;;;4.80;2.43;;;19.70;99.10;;;;;;5035108;28;20277;-78
2022/07/31 00:43:17;;;;;;;4.07;2.40;;;19.70;99.10;;;;;;5033660;28;20203;-78
2022/07/31 00:45:43;;;;;;;3.17;2.40;;;19.60;99.40;;;;;;5034643;28;20205;-76
2022/07/31 00:48:08;;;;;;;9.52;2.38;;;19.60;99.50;;;;;;5034505;28;20641;-76
2022/07/31 00:50:35;;;;;;;2.97;2.33;;;19.60;99.60;;;;;;5034731;28;20177;-76
2022/07/31 00:53:00;;;;;;;2.83;2.60;;;19.60;99.10;;;;;;5032849;28;20170;-76
2022/07/31 00:55:26;;;;;;;8.43;2.87;;;19.60;99.50;;;;;;5034792;28;20272;-78
2022/07/31 00:57:51;;;;;;;2.50;2.30;;;19.50;99.50;;;;;;5033447;28;20173;-78
2022/07/31 01:00:17;;;;;;;4.90;2.47;;;19.50;98.80;;;;;;5033141;28;20658;-76
2022/07/31 01:02:43;;;;;;;4.93;2.57;;;19.30;99.50;;;;;;5033890;28;20182;-77
2022/07/31 01:05:08;;;;;;;3.47;2.37;;;19.20;99.90;;;;;;5034254;28;20177;-76
2022/07/31 01:07:34;;;;;;;3.67;2.87;;;19.30;99.60;;;;;;5033986;28;20252;-77
2022/07/31 01:10:04;;;;;;;3.40;2.60;;;19.40;99.40;;;;;;5034058;28;20166;-76
2022/07/31 01:12:44;;;;;;;4.27;2.70;;;19.40;99.30;;;;;;5033708;28;20611;-77
2022/07/31 01:15:12;;;;;;;3.77;2.30;;;19.60;99.10;;;;;;5032630;28;20170;-76
2022/07/31 01:17:39;;;;;;;4.87;2.57;;;19.60;99.40;;;;;;5032535;28;20266;-77
2022/07/31 01:20:07;;;;;;;5.67;2.20;;;19.30;99.90;;;;;;5033779;28;20180;-77
2022/07/31 01:23:00;;;;;;;3.53;2.40;;;19.10;99.90;;;;;;5033570;28;20653;-77
2022/07/31 01:25:43;;;;;;;2.47;2.10;;;19.10;99.90;;;;;;5033401;28;20174;-76
2022/07/31 01:28:09;;;;;;;5.50;2.50;;;19.10;99.90;;;;;;5034015;28;20424;-76
2022/07/31 01:30:41;;;;;;;4.90;2.20;;;19.00;99.90;;;;;;5033937;28;20174;-77
2022/07/31 01:33:17;;;;;;;5.87;2.50;;;18.90;99.90;;;;;;5032390;28;20582;-79
2022/07/31 01:35:47;;;;;;;2.60;2.40;;;18.90;99.90;;;;;;5034105;28;20162;-78
2022/07/31 01:38:23;;;;;;;3.17;2.40;;;18.90;99.90;;;;;;5033154;28;20673;-78
2022/07/31 01:41:01;;;;;;;4.77;3.13;;;18.90;99.90;;;;;;5033859;28;20662;-78
2022/07/31 01:43:34;;;;;;;4.43;2.60;;;18.80;99.90;;;;;;5033840;28;20161;-78
2022/07/31 01:46:02;;;;;;;4.83;2.80;;;18.70;99.90;;;;;;5033813;28;20166;-77
2022/07/31 01:48:30;;;;;;;2.83;2.23;;;18.70;99.90;;;;;;5033775;28;20190;-78
2022/07/31 01:50:58;;;;;;;5.60;2.77;;;18.70;99.90;;;;;;5033487;28;20561;-78
2022/07/31 01:53:26;;;;;;;6.80;2.50;;;18.60;99.90;;;;;;5033548;28;20173;-78
2022/07/31 01:55:54;;;;;;;4.60;2.60;;;18.50;99.90;;;;;;5032711;28;20182;-78
2022/07/31 01:58:21;;;;;;;4.43;2.43;;;18.50;99.90;;;;;;5033513;28;20169;-77
2022/07/31 02:00:49;;;;;;;3.83;2.57;;;18.50;99.90;;;;;;5033193;28;20264;-78
2022/07/31 02:03:16;;;;;;;3.40;2.87;;;18.70;99.90;;;;;;5031625;28;20276;-78
2022/07/31 02:05:43;;;;;;;8.70;2.80;;;18.60;99.90;;;;;;5032959;28;20173;-78
2022/07/31 02:08:11;;;;;;;3.67;2.73;;;18.60;99.90;;;;;;5039366;23;20284;-79
2022/07/31 02:10:37;;;;;;;5.87;2.67;;;18.40;99.90;;;;;;5016429;28;20189;-80
2022/07/31 02:13:04;;;;;;;3.00;2.57;;;18.30;99.90;;;;;;5015698;28;20181;-79
2022/07/31 02:15:31;;;;;;;7.57;2.70;;;18.40;99.90;;;;;;5016033;28;20538;-78
2022/07/31 02:17:59;;;;;;;7.77;2.70;;;18.30;99.90;;;;;;5016277;28;20285;-79
2022/07/31 02:20:26;;;;;;;5.67;3.00;;;18.10;99.90;;;;;;5033589;28;20257;-78
2022/07/31 02:22:53;;;;;;;6.03;3.13;;;18.00;99.90;;;;;;5016245;28;20178;-78
2022/07/31 02:25:19;;;;;;;3.90;3.00;;;18.10;99.90;;;;;;5015917;28;20568;-79
2022/07/31 02:27:46;;;;;;;3.27;2.87;;;18.00;99.90;;;;;;5016307;28;20205;-79
2022/07/31 02:30:14;;;;;;;5.63;2.50;;;18.20;99.90;;;;;;5016255;28;20537;-79
2022/07/31 02:32:44;;;;;;;4.03;2.83;;;18.10;99.90;;;;;;5015952;28;20174;-79
2022/07/31 02:35:11;;;;;;;3.70;2.60;;;18.10;99.90;;;;;;5015806;28;20190;-79
2022/07/31 02:37:41;;;;;;;6.03;2.67;;;18.10;99.90;;;;;;5015236;28;20182;-78
2022/07/31 02:40:09;;;;;;;3.07;2.70;;;18.00;99.90;;;;;;5016581;28;20181;-79
2022/07/31 02:42:36;;;;;;;4.43;2.70;;;18.10;99.90;;;;;;5016008;28;20794;-79
2022/07/31 02:45:03;;;;;;;7.57;3.63;;;18.10;99.90;;;;;;5016197;28;20732;-79
2022/07/31 02:47:29;;;;;;;6.17;3.20;;;18.10;99.90;;;;;;5016063;28;20209;-79
2022/07/31 02:49:56;;;;;;;8.43;3.03;;;18.10;99.90;;;;;;5016091;28;20173;-79
2022/07/31 02:52:23;;;;;;;3.20;2.73;;;18.10;99.90;;;;;;5016722;28;20541;-79
2022/07/31 02:54:49;;;;;;;6.50;3.30;;;17.80;99.90;;;;;;5016322;28;20208;-81
2022/07/31 02:57:16;;;;;;;5.60;2.90;;;17.80;99.90;;;;;;5016591;28;20243;-79
2022/07/31 02:59:42;;;;;;;6.30;3.30;;;17.90;99.90;;;;;;5016544;28;20177;-79
2022/07/31 03:02:09;;;;;;;5.03;3.03;;;17.80;99.90;;;;;;5016635;28;20170;-81
2022/07/31 03:04:34;;;;;;;3.93;2.90;;;17.70;99.90;;;;;;5016425;28;20259;-81
2022/07/31 03:07:00;;;;;;;4.13;3.30;;;17.60;99.90;;;;;;5016566;28;20193;-81
2022/07/31 03:09:27;;;;;;;5.00;3.30;;;17.90;99.90;;;;;;5015972;28;20229;-81
2022/07/31 03:11:52;;;;;;;3.83;3.40;;;17.90;99.90;;;;;;5016472;28;20195;-82
2022/07/31 03:14:20;;;;;;;4.10;3.10;;;17.90;99.90;;;;;;5016345;28;20658;-79
2022/07/31 03:16:48;;;;;;;5.43;3.20;;;17.80;99.90;;;;;;5016384;28;20170;-79
2022/07/31 03:19:15;;;;;;;7.53;3.40;;;17.70;99.90;;;;;;5034429;28;20693;-81
2022/07/31 03:21:41;;;;;;;3.80;3.10;;;17.80;99.90;;;;;;5017089;28;20189;-79
2022/07/31 03:24:07;;;;;;;5.93;3.40;;;17.70;99.90;;;;;;5017453;28;20216;-80
2022/07/31 03:26:33;;;;;;;5.67;3.20;;;17.60;99.90;;;;;;5017281;28;20215;-81
2022/07/31 03:28:59;;;;;;;4.37;3.37;;;17.40;99.90;;;;;;5017440;28;20210;-79
2022/07/31 03:31:25;;;;;;;4.37;3.33;;;17.60;99.90;;;;;;5017425;28;20237;-81
2022/07/31 03:33:50;;;;;;;6.73;3.20;;;17.60;99.90;;;;;;5016706;28;20251;-80
2022/07/31 03:36:16;;;;;;;3.77;3.07;;;17.70;99.90;;;;;;5016787;28;20174;-80
2022/07/31 03:38:42;;;;;;;6.20;3.30;;;17.60;99.90;;;;;;5016392;28;20177;-80
2022/07/31 03:41:08;;;;;;;6.33;3.03;;;17.60;99.90;;;;;;5016834;28;20557;-81
2022/07/31 03:43:35;;;;;;;5.73;3.57;;;17.50;99.90;;;;;;5016830;28;20268;-81
2022/07/31 03:46:01;;;;;;;8.53;3.47;;;17.60;99.90;;;;;;5016795;28;20232;-81
2022/07/31 03:48:30;;;;;;;8.77;3.33;;;17.60;99.90;;;;;;5017249;28;20212;-79
2022/07/31 03:50:56;;;;;;;5.77;3.60;;;17.50;99.90;;;;;;5020857;28;20276;-80
2022/07/31 03:53:23;;;;;;;6.67;3.53;;;17.50;99.90;;;;;;5019804;28;20173;-79
2022/07/31 03:55:50;;;;;;;4.23;3.80;;;17.70;99.90;;;;;;5019887;28;20780;-79
2022/07/31 03:58:17;;;;;;;3.83;3.50;;;17.50;99.90;;;;;;5019982;28;20248;-80
2022/07/31 04:00:44;;;;;;;5.83;4.00;;;17.40;99.90;;;;;;5019840;28;20705;-79
2022/07/31 04:03:12;;;;;;;5.67;3.20;;;17.50;99.90;;;;;;5019542;28;20180;-80
2022/07/31 04:05:39;;;;;;;6.10;4.13;;;17.60;99.90;;;;;;5019629;28;20202;-79
2022/07/31 04:08:08;;;;;;;5.00;3.90;;;17.50;99.90;;;;;;5019126;28;20233;-79
2022/07/31 04:10:35;;;;;;;4.13;3.70;;;17.50;99.90;;;;;;5019276;28;20521;-80
2022/07/31 04:13:02;;;;;;;7.87;3.90;;;17.40;99.90;;;;;;5018749;28;20265;-80
2022/07/31 04:15:28;;;;;;;6.53;4.00;;;17.50;99.90;;;;;;5019416;28;20545;-78
2022/07/31 04:17:53;;;;;;;7.77;3.83;;;17.60;99.90;;;;;;5019424;28;20184;-79
2022/07/31 04:20:20;;;;;;;7.27;3.50;;;17.50;99.90;;;;;;5018380;28;20641;-81
2022/07/31 04:22:47;;;;;;;6.30;3.60;;;17.80;99.90;;;;;;5018479;28;20544;-79
2022/07/31 04:25:12;;;;;;;4.47;3.43;;;17.90;99.90;;;;;;5018135;28;20636;-82
2022/07/31 04:27:38;;;;;;;4.60;3.50;;;17.80;99.90;;;;;;5018273;28;20226;-79
2022/07/31 04:30:04;;;;;;;4.67;4.07;;;17.90;99.90;;;;;;5017503;28;20209;-77
2022/07/31 04:32:30;;;;;;;5.17;3.57;;;18.10;99.90;;;;;;5017324;28;20182;-79
2022/07/31 04:34:55;;;;;;;6.87;3.67;;;17.90;99.90;;;;;;5016768;28;20397;-77
2022/07/31 04:37:21;;;;;;;9.00;3.57;;;17.90;99.90;;;;;;5017296;28;20166;-77
2022/07/31 04:39:47;;;;;;;9.43;3.80;;;18.00;99.90;;;;;;5017311;28;20173;-80
2022/07/31 04:42:12;;;;;;;9.30;4.10;;;17.90;99.90;;;;;;5017364;28;20264;-79
2022/07/31 04:44:38;;;;;;;5.77;3.47;;;18.00;99.90;;;;;;5017181;28;20560;-77
2022/07/31 04:47:05;;;;;;;6.37;3.50;;;18.00;99.90;;;;;;5016965;28;20171;-77
2022/07/31 04:49:32;;;;;;;4.43;3.60;;;18.20;99.90;;;;;;5016971;28;20213;-77
2022/07/31 04:51:58;;;;;;;5.53;3.60;;;18.20;99.90;;;;;;5017134;28;20213;-78
2022/07/31 04:54:25;;;;;;;5.80;3.33;;;17.90;99.90;;;;;;5034706;28;20186;-77
2022/07/31 04:56:50;;;;;;;7.27;3.70;;;18.10;99.90;;;;;;5016848;28;20177;-77
2022/07/31 04:59:19;;;;;;;5.43;3.70;;;18.40;99.90;;;;;;5016944;28;20261;-79
2022/07/31 05:01:45;;;;;;;5.00;3.27;;;18.60;99.90;;;;;;5033490;28;20261;-77
2022/07/31 05:04:11;;;;;;;8.10;3.37;;;18.80;99.90;;;;;;5016919;28;20190;-78
2022/07/31 05:06:40;;;;;;;9.37;3.63;;;18.60;99.90;;;;;;5017005;28;20868;-78
2022/07/31 05:09:08;;;;;;;5.37;3.30;;;18.40;99.90;;;;;;5016648;28;20210;-78
2022/07/31 05:11:35;;;;;;;4.90;3.23;;;18.30;99.90;;;;;;5016930;28;20174;-78
2022/07/31 05:14:02;;;;;;;9.67;3.40;;;18.40;99.90;;;;;;5016635;28;20190;-78
2022/07/31 05:16:29;;;;;;;6.03;3.50;;;18.30;99.90;;;;;;5016994;28;20198;-78
2022/07/31 05:18:56;;;;;;;7.80;3.30;;;18.30;99.90;;;;;;5016660;28;20213;-79
2022/07/31 05:21:22;;;;;;;5.07;3.30;;;18.30;99.90;;;;;;5017571;28;20794;-78
2022/07/31 05:23:48;;;;;;;4.87;3.23;;;18.30;99.90;;;;;;5017334;28;20174;-79
2022/07/31 05:26:16;;;;;;;6.03;3.33;;;18.30;99.90;;;;;;5017271;28;20660;-80
2022/07/31 05:28:41;;;;;;;5.50;3.50;;;18.30;99.90;;;;;;5016898;28;20252;-79
2022/07/31 05:31:08;;;;;;;7.27;3.13;;;18.30;99.90;;;;;;5017056;28;20178;-78
2022/07/31 05:33:34;;;;;;;7.20;2.97;;;18.40;99.90;;;;;;5017464;28;20181;-81
2022/07/31 05:36:01;;;;;;;5.83;3.30;;;18.50;99.90;;;;;;5017370;28;20193;-79
2022/07/31 05:38:27;;;;;;;7.07;4.37;;;18.60;99.90;;;;;;5034546;28;20689;-78
2022/07/31 05:40:53;;;;;;;6.37;3.33;;;18.60;99.90;;;;;;5017529;28;20177;-79
2022/07/31 05:43:18;;;;;;;3.90;3.33;;;18.50;99.90;;;;;;5016710;28;20181;-80
2022/07/31 05:45:45;;;;;;;4.07;3.27;;;18.50;99.90;;;;;;5016989;28;20193;-78
2022/07/31 05:48:12;;;;;;;7.07;3.50;;;18.50;99.90;;;;;;5016676;28;20224;-79
2022/07/31 05:50:41;;;;;;;8.27;3.50;;;18.40;99.90;;;;;;5016818;28;20232;-79
2022/07/31 05:53:06;;;;;;;7.67;3.47;;;18.50;99.90;;;;;;5016462;28;20185;-78
2022/07/31 05:55:32;;;;;;;5.20;3.50;;;18.60;99.90;;;;;;5034439;28;20194;-78
2022/07/31 05:57:57;;;;;;;7.43;3.33;;;18.70;99.90;;;;;;5016744;28;20255;-78
2022/07/31 06:00:23;;;;;;;4.63;3.10;;;18.60;99.90;;;;;;5016791;28;20688;-79
2022/07/31 06:02:49;;;;;;;5.33;3.10;;;18.80;99.90;;;;;;5017692;28;20178;-81
2022/07/31 06:05:14;;;;;;;3.80;3.30;;;18.90;99.90;;;;;;5018918;28;20194;-78
2022/07/31 06:07:40;;;;;;;3.97;3.10;;;18.90;99.90;;;;;;5035466;28;20252;-79
2022/07/31 06:10:06;;;;;;;5.73;2.87;;;19.10;99.90;;;;;;5016912;28;20193;-79
2022/07/31 06:12:32;;;;;;;3.67;3.07;;;19.30;99.90;;;;;;5016077;28;20631;-79
2022/07/31 06:14:58;;;;;;;7.23;3.00;;;19.60;99.90;;;;;;5016309;28;20658;-80
2022/07/31 06:17:24;;;;;;;3.40;3.03;;;19.60;99.90;;;;;;5016019;28;20174;-79
2022/07/31 06:19:50;;;;;;;9.05;3.05;;;19.50;99.90;;;;;;5016039;28;20174;-79
2022/07/31 06:22:15;;;;;;;7.75;3.83;;;19.70;99.90;;;;;;5016487;28;20259;-80
2022/07/31 06:24:41;;;;;;;3.63;2.95;;;19.80;99.90;;;;;;5016115;28;20229;-79
2022/07/31 06:27:07;;;;;;;10.10;2.80;;;20.20;99.90;;;;;;5016047;28;20220;-79
2022/07/31 06:29:33;;;;;;;3.60;2.75;;;20.60;99.90;;;;;;5016034;28;20616;-79
2022/07/31 06:31:58;;;;;;;3.15;2.75;;;20.60;99.90;;;;;;5016356;28;20178;-78
2022/07/31 06:34:24;;;;;;;3.58;2.40;;;20.70;99.90;;;;;;5016248;28;20205;-78
2022/07/31 06:36:50;;;;;;;3.13;2.40;;;20.80;99.90;;;;;;5015584;28;20171;-77
2022/07/31 06:39:16;;;;;;;2.75;2.47;;;20.80;99.90;;;;;;5015319;28;20178;-78
2022/07/31 06:41:48;;;;;;;5.05;2.92;;;20.90;99.90;;;;;;5015423;28;20177;-78
2022/07/31 06:44:18;;;;;;;8.23;2.80;;;20.90;99.90;;;;;;5015038;28;20231;-78
2022/07/31 06:46:45;;;;;;;5.97;2.70;;;21.00;99.90;;;;;;5015174;28;20579;-78
2022/07/31 06:49:12;;;;;;;4.35;2.50;;;21.10;99.90;;;;;;5008140;28;20206;-76
2022/07/31 06:51:38;;;;;;;4.40;2.65;;;21.10;99.90;;;;;;5014768;28;20228;-75
2022/07/31 06:54:06;;;;;;;5.15;2.53;;;21.20;99.90;;;;;;5014678;28;20193;-79
2022/07/31 06:56:32;;;;;;;6.63;2.90;;;21.10;99.90;;;;;;5015135;28;20194;-77
2022/07/31 06:58:58;;;;;;;4.45;2.90;;;21.10;99.90;;;;;;5014651;28;20260;-75
2022/07/31 07:01:24;;;;;;;4.78;2.90;;;21.00;99.90;;;;;;5014976;28;20736;-77
2022/07/31 07:03:50;;;;;;;10.85;3.08;;;21.20;99.90;;;;;;4997867;28;20179;-77
2022/07/31 07:06:16;;;;;;;7.32;3.10;;;21.20;99.90;;;;;;4995114;28;20179;-77
2022/07/31 07:08:42;;;;;;;5.43;3.00;;;21.20;99.90;;;;;;4995136;28;20206;-78
2022/07/31 07:11:07;;;;;;;5.97;3.00;;;21.10;99.90;;;;;;4995350;28;20175;-79
2022/07/31 07:13:33;;;;;;;13.05;3.60;;;21.20;99.90;;;;;;4995409;28;20240;-79
2022/07/31 07:15:59;;;;;;;7.18;3.28;;;21.10;99.90;;;;;;4995092;28;20226;-78
2022/07/31 07:18:24;;;;;;;8.45;3.75;;;21.10;99.90;;;;;;4995991;28;20186;-79
2022/07/31 07:20:50;;;;;;;3.92;3.00;;;21.00;99.90;;;;;;4995824;28;20656;-79
2022/07/31 07:23:17;;;;;;;10.48;3.58;;;21.10;99.90;;;;;;4994920;28;20210;-78
2022/07/31 07:25:43;;;;;;;6.05;3.72;;;21.10;99.90;;;;;;4994487;28;20344;-87
2022/07/31 07:28:09;;;;;;;7.63;3.75;;;21.40;99.90;;;;;;4994623;28;20281;-86
2022/07/31 07:30:35;;;;;;;7.18;3.70;;;21.60;99.90;;;;;;4996834;28;20167;-87
2022/07/31 07:33:01;;;;;;;7.93;3.92;;;21.80;99.90;;;;;;4996677;28;20166;-86
2022/07/31 07:35:27;;;;;;;5.43;4.10;;;21.60;99.90;;;;;;4996044;28;20540;-86
2022/07/31 07:37:57;;;;;;;7.38;3.97;;;21.50;99.90;;;;;;4996121;28;20631;-86
2022/07/31 07:40:24;;;;;;;7.03;4.22;;;21.70;99.90;;;;;;4997041;28;20170;-88
2022/07/31 07:42:49;;;;;;;7.93;4.15;;;21.80;99.90;;;;;;4995444;28;20178;-86
2022/07/31 07:45:15;;;;;;;8.07;4.40;;;21.80;99.90;;;;;;4995593;28;20195;-84
2022/07/31 07:47:41;;;;;;;8.02;3.55;;;21.80;99.90;;;;;;4995056;28;20230;-84
2022/07/31 07:50:08;;;;;;;7.20;4.13;;;22.10;99.90;;;;;;4995422;28;20543;-83
2022/07/31 07:52:35;;;;;;;7.18;3.90;;;22.10;99.90;;;;;;4995691;28;20170;-86
2022/07/31 07:55:02;;;;;;;8.57;4.25;;;22.00;99.90;;;;;;4995551;28;20237;-85
2022/07/31 07:57:27;;;;;;;10.07;3.60;;;22.00;99.90;;;;;;4995066;28;20186;-85
2022/07/31 07:59:54;;;;;;;9.73;4.03;;;22.20;99.90;;;;;;4995069;28;20167;-84
2022/07/31 08:02:19;;;;;;;7.60;3.58;;;22.30;99.90;;;;;;4994251;28;20261;-85
2022/07/31 08:04:45;;;;;;;5.72;3.47;;;22.40;99.90;;;;;;4994887;28;20294;-86
2022/07/31 08:07:11;;;;;;;7.20;4.10;;;22.70;99.90;;;;;;4995565;28;20221;-85
2022/07/31 08:09:36;;;;;;;5.82;3.90;;;22.70;99.90;;;;;;4995030;28;20213;-86
2022/07/31 08:12:03;;;;;;;8.57;4.07;;;22.80;99.90;;;;;;4995695;28;20657;-85
2022/07/31 08:14:29;;;;;;;10.02;3.83;;;22.50;99.90;;;;;;4995089;28;20333;-85
2022/07/31 08:16:55;;;;;;;5.63;3.60;;;22.70;99.90;;;;;;4995281;28;20261;-85
2022/07/31 08:19:21;;;;;;;9.18;4.25;;;22.60;99.90;;;;;;4995346;28;20256;-85
2022/07/31 08:21:47;;;;;;;10.07;4.10;;;22.60;99.90;;;;;;4994586;28;20232;-84
2022/07/31 08:24:15;;;;;;;10.30;3.50;;;22.50;99.90;;;;;;4994927;28;20201;-86
2022/07/31 08:29:26;;;;;;;8.13;4.43;;;22.60;99.90;;;;;;5012571;28;20221;-86
2022/07/31 08:31:52;;;;;;;5.97;5.03;;;22.50;99.90;;;;;;4995689;28;20244;-85
2022/07/31 08:34:17;;;;;;;11.05;5.25;;;22.60;99.90;;;;;;4996007;28;20198;-85
2022/07/31 08:36:43;;;;;;;10.73;5.40;;;22.50;99.90;;;;;;4996728;28;20639;-87
2022/07/31 08:39:09;;;;;;;7.05;5.22;;;22.40;99.90;;;;;;4998935;28;20313;-86
2022/07/31 08:41:38;;;;;;;9.55;6.03;;;22.60;99.90;;;;;;4998993;28;20183;-84
2022/07/31 08:44:06;;;;;;;11.98;5.43;;;22.50;99.90;;;;;;4999064;28;20191;-85
2022/07/31 08:46:42;;;;;;;10.85;6.30;;;22.80;99.90;;;;;;4998179;28;20197;-87
2022/07/31 08:49:11;;;;;;;10.80;6.45;;;22.90;99.90;;;;;;4998041;28;20403;-84
2022/07/31 08:51:38;;;;;;;6.55;5.50;;;23.00;99.90;;;;;;4997530;28;20198;-85
2022/07/31 08:54:11;;;;;;;11.93;6.38;;;22.90;99.90;;;;;;4999490;28;20222;-86
2022/07/31 08:56:38;;;;;;;11.40;5.60;;;23.20;99.90;;;;;;4999366;28;20178;-85
2022/07/31 08:59:05;;;;;;;7.13;4.57;;;23.20;99.90;;;;;;4998856;28;20635;-85
2022/07/31 09:01:33;;;;;;;10.45;5.63;;;23.60;99.90;;;;;;5000370;28;20189;-83
2022/07/31 09:03:59;;;;;;;8.00;5.70;;;23.50;99.90;;;;;;4999915;28;20671;-86
2022/07/31 09:06:25;;;;;;;8.82;4.63;;;23.60;99.90;;;;;;5000172;28;20186;-85
2022/07/31 09:08:50;;;;;;;19.17;5.60;;;24.00;99.90;;;;;;4999919;28;20207;-85
2022/07/31 09:11:17;;;;;;;8.27;5.35;;;24.00;99.90;;;;;;5000541;28;20639;-85
2022/07/31 09:14:13;;;;;;;9.90;5.30;;;23.70;99.90;;;;;;4999696;28;20242;-85
2022/07/31 09:16:47;;;;;;;10.25;4.97;;;24.00;99.90;;;;;;4983996;28;20183;-86
2022/07/31 09:19:13;;;;;;;11.88;6.50;;;24.30;99.80;;;;;;5001036;28;20270;-84
2022/07/31 09:21:40;;;;;;;8.68;5.95;;;24.10;99.60;;;;;;5000279;28;20175;-85
2022/07/31 09:24:09;;;;;;;13.10;6.63;;;24.30;99.60;;;;;;4999955;28;20233;-85
2022/07/31 09:26:35;;;;;;;9.45;5.25;;;24.30;99.70;;;;;;4998764;28;20182;-86
2022/07/31 09:29:07;;;;;;;16.80;8.68;;;24.40;99.80;;;;;;5000927;28;20198;-83
2022/07/31 09:31:34;;;;;;;13.52;6.00;;;24.40;99.40;;;;;;5000039;28;20448;-84
2022/07/31 09:34:00;;;;;;;10.05;6.43;;;24.40;99.90;;;;;;5000637;28;20195;-84
2022/07/31 09:36:26;;;;;;;13.07;6.80;;;24.60;99.10;;;;;;4999611;28;20182;-85
2022/07/31 09:38:52;;;;;;;8.40;4.85;;;24.10;99.40;;;;;;5017117;28;20167;-85
2022/07/31 09:41:19;;;;;;;14.00;6.47;;;24.40;99.40;;;;;;4997868;28;20179;-83
2022/07/31 09:43:55;;;;;;;12.70;6.93;;;24.30;99.30;;;;;;4998856;28;20171;-84
2022/07/31 09:46:21;;;;;;;11.35;6.72;;;24.60;98.70;;;;;;4997666;28;20178;-84
2022/07/31 09:48:52;;;;;;;8.45;5.03;;;24.50;98.70;;;;;;4998120;28;20202;-86
2022/07/31 09:51:18;;;;;;;10.15;5.22;;;25.20;99.80;;;;;;5016003;28;20535;-85
2022/07/31 09:53:46;;;;;;;12.57;6.93;;;25.40;98.40;;;;;;4998874;28;20178;-86
2022/07/31 09:56:13;;;;;;;11.02;5.78;;;25.60;97.60;;;;;;4997723;28;20170;-85
2022/07/31 09:58:40;;;;;;;9.20;6.25;;;25.30;98.90;;;;;;4998156;28;20170;-84
2022/07/31 10:01:08;;;;;;;7.60;3.97;;;25.50;97.80;;;;;;4997704;28;20245;-85
2022/07/31 10:03:36;;;;;;;10.90;5.85;;;25.40;98.30;;;;;;4997954;28;20171;-84
2022/07/31 10:06:03;;;;;;;10.77;5.85;;;25.40;98.30;;;;;;4998213;28;20534;-84
2022/07/31 10:08:36;;;;;;;13.60;5.78;;;25.00;97.90;;;;;;4996676;28;20268;-85
2022/07/31 10:11:03;;;;;;;11.45;5.72;;;24.90;98.60;;;;;;4997226;28;20260;-85
2022/07/31 10:13:31;;;;;;;9.25;5.40;;;24.60;98.50;;;;;;4998238;28;20177;-85
2022/07/31 10:15:59;;;;;;;12.40;5.72;;;24.70;98.20;;;;;;4997535;28;20198;-85
2022/07/31 10:18:28;;;;;;;9.30;5.00;;;24.90;98.60;;;;;;4997389;28;20178;-85
2022/07/31 10:20:55;;;;;;;8.85;5.28;;;24.70;98.70;;;;;;4998555;28;20171;-86
2022/07/31 10:23:25;;;;;;;10.35;5.25;;;24.60;98.80;;;;;;4997259;28;20635;-84
2022/07/31 10:25:57;;;;;;;7.00;5.40;;;24.40;99.40;;;;;;4999034;28;20548;-85
2022/07/31 10:28:24;;;;;;;14.82;6.40;;;24.10;99.80;;;;;;4999623;28;20202;-84
2022/07/31 10:30:50;;;;;;;12.50;5.57;;;24.30;99.70;;;;;;4998228;28;20220;-83
2022/07/31 10:33:16;;;;;;;11.30;5.93;;;24.30;99.90;;;;;;4998635;28;20171;-81
2022/07/31 10:36:15;;;;;;;10.95;5.80;;;24.20;99.10;;;;;;4999152;28;20198;-80
2022/07/31 10:38:57;;;;;;;9.13;5.55;;;23.90;99.90;;;;;;4996781;28;20177;-81
2022/07/31 10:41:34;;;;;;;9.18;5.32;;;23.70;99.90;;;;;;4996356;28;20242;-82
2022/07/31 10:44:09;;;;;;;11.25;5.22;;;23.80;99.50;;;;;;4995835;28;20201;-81
2022/07/31 10:46:35;;;;;;;12.45;4.93;;;23.80;99.90;;;;;;5014499;28;20255;-81
2022/07/31 10:49:01;;;;;;;6.57;4.30;;;23.80;99.90;;;;;;4997499;28;20205;-81
2022/07/31 10:51:27;;;;;;;10.43;4.40;;;23.50;99.90;;;;;;4996625;28;20190;-80
2022/07/31 10:54:04;;;;;;;12.20;4.38;;;23.50;99.20;;;;;;4997406;28;20186;-81
2022/07/31 10:56:43;;;;;;;13.30;4.80;;;23.60;98.70;;;;;;4997765;28;20263;-81
2022/07/31 10:59:10;;;;;;;6.28;4.30;;;23.90;98.90;;;;;;4996986;28;20265;-80
2022/07/31 11:01:50;;;;;;;8.55;3.80;;;23.90;99.10;;;;;;4997887;28;20178;-81
2022/07/31 11:04:36;;;;;;;10.25;5.05;;;24.30;99.10;;;;;;4998622;28;20198;-81
2022/07/31 11:07:14;;;;;;;6.72;4.90;;;24.30;99.40;;;;;;4996481;28;20566;-81
2022/07/31 11:09:40;;;;;;;7.03;4.72;;;24.00;99.20;;;;;;4997587;28;20202;-81
2022/07/31 11:12:19;;;;;;;9.95;4.25;;;23.90;98.70;;;;;;4997179;28;20171;-81
2022/07/31 11:14:45;;;;;;;10.18;3.92;;;23.90;99.30;;;;;;4997545;28;20191;-78
2022/07/31 11:17:11;;;;;;;8.27;3.88;;;24.30;99.20;;;;;;4997202;28;20265;-81
2022/07/31 11:19:38;;;;;;;5.32;4.00;;;24.50;99.40;;;;;;4996708;28;20262;-82
2022/07/31 11:22:12;;;;;;;7.72;3.90;;;25.00;98.20;;;;;;4996300;28;20266;-81
2022/07/31 11:24:38;;;;;;;6.35;3.85;;;24.70;98.90;;;;;;4996558;28;20233;-80
2022/07/31 11:27:04;;;;;;;5.97;3.70;;;24.80;98.40;;;;;;4996856;28;20201;-80
2022/07/31 11:29:36;;;;;;;7.28;4.00;;;24.80;98.10;;;;;;4997537;28;20206;-79
2022/07/31 11:32:04;;;;;;;4.75;3.67;;;24.80;97.60;;;;;;4996883;28;20182;-81
2022/07/31 11:34:42;;;;;;;7.95;3.92;;;24.40;98.40;;;;;;4997508;28;20256;-80
2022/07/31 11:37:17;;;;;;;8.75;3.65;;;24.70;99.30;;;;;;4997237;28;20261;-80
2022/07/31 11:39:43;;;;;;;4.65;3.17;;;25.00;98.30;;;;;;4996723;28;20170;-79
2022/07/31 11:42:08;;;;;;;3.38;3.08;;;24.90;98.20;;;;;;4997249;28;20270;-80
2022/07/31 11:44:34;;;;;;;4.10;3.10;;;24.90;97.80;;;;;;4996596;28;20644;-80
2022/07/31 11:47:00;;;;;;;6.70;3.30;;;24.60;98.10;;;;;;5014520;28;20257;-81
2022/07/31 11:49:27;;;;;;;6.30;3.50;;;24.40;99.40;;;;;;4997491;28;20245;-81
2022/07/31 11:52:00;;;;;;;8.38;3.38;;;24.50;98.90;;;;;;4996498;28;20175;-80
2022/07/31 11:54:26;;;;;;;6.70;3.05;;;24.40;98.70;;;;;;4996803;28;20195;-81
2022/07/31 11:56:52;;;;;;;4.22;3.60;;;24.60;99.20;;;;;;4997385;28;20177;-81
2022/07/31 11:59:34;;;;;;;4.35;3.28;;;24.40;99.20;;;;;;4996815;28;20762;-79
2022/07/31 12:02:09;;;;;;;4.80;3.55;;;24.50;98.50;;;;;;4996938;28;20182;-80
2022/07/31 12:04:36;;;;;;;3.33;3.03;;;24.60;98.60;;;;;;4997645;28;20194;-81
2022/07/31 12:07:03;;;;;;;5.25;3.40;;;24.50;98.30;;;;;;4997175;28;20182;-81
2022/07/31 12:09:30;;;;;;;4.60;3.33;;;24.10;99.00;;;;;;4995011;28;20209;-81
2022/07/31 12:11:56;;;;;;;4.68;4.03;;;24.00;99.10;;;;;;4998984;28;20363;-83
2022/07/31 12:14:33;;;;;;;4.45;4.03;;;23.80;99.30;;;;;;5000593;28;20195;-81
2022/07/31 12:16:59;;;;;;;4.72;3.92;;;23.80;99.30;;;;;;5019148;28;20262;-79
2022/07/31 12:19:30;;;;;;;6.03;4.30;;;23.60;99.90;;;;;;5002478;28;20201;-80
2022/07/31 12:21:56;;;;;;;7.53;4.45;;;23.50;99.90;;;;;;5001800;28;20181;-80
2022/07/31 12:24:22;;;;;;;6.65;5.13;;;23.60;99.90;;;;;;5000633;28;20198;-80
2022/07/31 12:26:51;;;;;;;5.57;4.35;;;23.40;99.90;;;;;;5000448;28;20335;-80
2022/07/31 12:29:17;;;;;;;6.45;4.55;;;23.30;99.90;;;;;;4999561;28;20209;-79
2022/07/31 12:31:49;;;;;;;5.95;4.65;;;23.30;99.90;;;;;;5017372;28;20584;-81
2022/07/31 12:34:40;;;;;;;7.95;5.18;;;23.50;99.90;;;;;;4999786;28;20265;-80
2022/07/31 12:37:09;;;;;;;5.80;4.78;;;23.40;99.90;;;;;;5000720;28;20551;-80
2022/07/31 12:39:38;;;;;;;9.02;4.82;;;23.30;99.90;;;;;;4999639;28;20225;-80
2022/07/31 12:42:05;;;;;;;6.65;5.35;;;23.30;99.90;;;;;;4999847;28;20171;-80
2022/07/31 12:44:31;;;;;;;7.07;5.38;;;23.20;99.90;;;;;;4999971;28;20731;-80
2022/07/31 12:46:56;;;;;;;6.80;5.35;;;23.10;99.90;;;;;;5000158;28;20523;-80
2022/07/31 12:49:22;;;;;;;6.50;5.20;;;23.20;99.90;;;;;;5000044;28;20206;-80
2022/07/31 12:51:47;;;;;;;6.93;5.10;;;23.30;99.90;;;;;;5000592;28;20190;-80